createdAt,value
2024-02-19T00:00:57.035Z,101969.98
2024-02-19T00:03:25.084Z,101966.42
2024-02-19T00:05:52.904Z,101964.04
2024-02-19T00:08:20.802Z,101962.17
2024-02-19T00:10:48.802Z,101964.33
2024-02-19T00:13:17.070Z,101958.35
2024-02-19T00:15:44.936Z,101955.45
2024-02-19T00:18:12.889Z,101954.82
2024-02-19T00:20:40.698Z,101958.17
2024-02-19T00:23:08.530Z,101957.05
2024-02-19T00:25:39.980Z,101955.77
2024-02-19T00:28:07.653Z,101955.14
2024-02-19T00:30:35.367Z,101957.11
2024-02-19T00:33:03.160Z,101953.86
2024-02-19T00:35:31.581Z,101951.84
2024-02-19T00:37:59.932Z,101948.77
2024-02-19T00:40:27.567Z,101946.46
2024-02-19T00:42:55.102Z,101946.13
2024-02-19T00:45:22.750Z,101950.27
2024-02-19T00:47:50.540Z,101950.65
2024-02-19T00:50:18.540Z,101951.79
2024-02-19T00:52:46.211Z,101950.55
2024-02-19T00:55:13.782Z,101946.26
2024-02-19T00:57:41.546Z,101945.98
2024-02-19T01:00:09.798Z,101950.73
2024-02-19T01:02:37.500Z,101951.36
2024-02-19T01:05:06.606Z,101951.33
2024-02-19T01:07:34.327Z,101949.02
2024-02-19T01:10:02.065Z,101949.17
2024-02-19T01:12:29.954Z,101948.09
2024-02-19T01:14:57.453Z,101949.94
2024-02-19T01:17:25.564Z,101948.83
2024-02-19T01:19:54.096Z,101943.90
2024-02-19T01:22:21.921Z,101944.50
2024-02-19T01:24:50.385Z,101945.77
2024-02-19T01:27:17.977Z,101946.60
2024-02-19T01:29:47.073Z,101951.52
2024-02-19T01:32:14.941Z,101951.59
2024-02-19T01:34:42.675Z,101954.69
2024-02-19T01:37:10.733Z,101955.05
2024-02-19T01:39:38.492Z,101954.04
2024-02-19T01:42:06.611Z,101954.08
2024-02-19T01:44:38.534Z,101952.95
2024-02-19T01:47:06.136Z,101952.02
2024-02-19T01:49:34.744Z,101952.64
2024-02-19T01:52:02.520Z,101957.04
2024-02-19T01:54:30.255Z,101954.52
2024-02-19T01:56:57.921Z,101954.42
2024-02-19T01:59:25.470Z,101954.27
2024-02-19T02:01:54.785Z,101949.17
2024-02-19T02:04:22.587Z,101948.10
2024-02-19T02:06:50.293Z,101948.86
2024-02-19T02:09:17.923Z,101949.26
2024-02-19T02:11:45.526Z,101952.11
2024-02-19T02:14:13.193Z,101953.64
2024-02-19T02:16:40.748Z,101947.02
2024-02-19T02:19:08.511Z,101945.38
2024-02-19T02:21:41.694Z,101939.75
2024-02-19T02:24:09.467Z,101932.15
2024-02-19T02:26:41.484Z,101934.20
2024-02-19T02:29:09.044Z,101934.88
2024-02-19T02:31:36.655Z,101933.62
2024-02-19T02:34:06.579Z,101932.89
2024-02-19T02:36:34.740Z,101933.45
2024-02-19T02:39:02.781Z,101927.80
2024-02-19T02:41:31.500Z,101923.22
2024-02-19T02:43:59.268Z,101928.34
2024-02-19T02:46:27.045Z,101927.55
2024-02-19T02:48:55.127Z,101927.85
2024-02-19T02:51:22.970Z,101924.51
2024-02-19T02:53:50.733Z,101921.85
2024-02-19T02:56:21.788Z,101920.75
2024-02-19T02:58:49.545Z,101919.06
2024-02-19T03:01:18.952Z,101922.20
2024-02-19T03:03:46.804Z,101923.23
2024-02-19T03:06:14.678Z,101916.10
2024-02-19T03:08:42.547Z,101921.15
2024-02-19T03:11:10.345Z,101920.31
2024-02-19T03:13:38.893Z,101918.60
2024-02-19T03:16:07.030Z,101919.00
2024-02-19T03:18:38.600Z,101920.13
2024-02-19T03:21:09.440Z,101916.41
2024-02-19T03:23:37.123Z,101923.27
2024-02-19T03:26:05.942Z,101924.14
2024-02-19T03:28:34.496Z,101924.41
2024-02-19T03:31:02.221Z,101926.73
2024-02-19T03:33:30.003Z,101927.16
2024-02-19T03:35:57.891Z,101927.08
2024-02-19T03:38:26.006Z,101924.39
2024-02-19T03:40:53.733Z,101924.83
2024-02-19T03:43:21.443Z,101931.83
2024-02-19T03:45:52.012Z,101927.14
2024-02-19T03:48:19.615Z,101928.06
2024-02-19T03:50:47.446Z,101929.86
2024-02-19T03:53:15.213Z,101928.36
2024-02-19T03:55:42.908Z,101929.11
2024-02-19T03:58:10.671Z,101931.83
2024-02-19T04:00:38.292Z,101937.02
2024-02-19T04:03:06.576Z,101933.21
2024-02-19T04:05:34.798Z,101933.42
2024-02-19T04:08:02.421Z,101930.71
2024-02-19T04:10:30.078Z,101932.70
2024-02-19T04:12:57.645Z,101930.88
2024-02-19T04:15:25.301Z,101925.46
2024-02-19T04:17:52.894Z,101923.84
2024-02-19T04:20:20.884Z,101924.43
2024-02-19T04:22:48.594Z,101921.20
2024-02-19T04:25:16.426Z,101917.64
2024-02-19T04:27:44.370Z,101916.22
2024-02-19T04:30:13.424Z,101917.69
2024-02-19T04:32:41.183Z,101919.31
2024-02-19T04:35:09.646Z,101917.70
2024-02-19T04:37:37.432Z,101919.64
2024-02-19T04:40:05.934Z,101924.02
2024-02-19T04:42:34.560Z,101922.50
2024-02-19T04:45:02.180Z,101923.73
2024-02-19T04:47:29.832Z,101927.06
2024-02-19T04:49:57.672Z,101928.86
2024-02-19T04:52:25.539Z,101929.47
2024-02-19T04:54:53.253Z,101930.77
2024-02-19T04:57:21.595Z,101929.81
2024-02-19T04:59:49.161Z,101929.53
2024-02-19T05:02:16.938Z,101933.03
2024-02-19T05:04:44.804Z,101934.79
2024-02-19T05:07:12.638Z,101936.16
2024-02-19T05:09:40.738Z,101934.51
2024-02-19T05:12:08.543Z,101933.90
2024-02-19T05:14:36.156Z,101936.52
2024-02-19T05:17:04.689Z,101938.66
2024-02-19T05:19:32.435Z,101941.33
2024-02-19T05:22:00.221Z,101943.14
2024-02-19T05:24:27.928Z,101945.73
2024-02-19T05:26:55.611Z,101947.84
2024-02-19T05:29:23.768Z,101949.03
2024-02-19T05:31:53.043Z,101944.18
2024-02-19T05:34:21.175Z,101940.73
2024-02-19T05:36:48.888Z,101945.25
2024-02-19T05:39:16.670Z,101944.89
2024-02-19T05:41:45.065Z,101945.08
2024-02-19T05:44:12.734Z,101944.07
2024-02-19T05:46:40.373Z,101945.97
2024-02-19T05:49:08.065Z,101945.45
2024-02-19T05:51:35.799Z,101943.02
2024-02-19T05:54:03.485Z,101940.56
2024-02-19T05:56:31.135Z,101945.70
2024-02-19T05:58:59.052Z,101946.86
2024-02-19T06:01:26.924Z,101947.72
2024-02-19T06:03:54.780Z,101947.36
2024-02-19T06:06:22.527Z,101944.91
2024-02-19T06:08:50.263Z,101947.15
2024-02-19T06:11:18.078Z,101950.05
2024-02-19T06:13:45.727Z,101954.65
2024-02-19T06:16:13.256Z,101955.98
2024-02-19T06:18:40.977Z,101953.20
2024-02-19T06:21:08.744Z,101955.79
2024-02-19T06:23:36.333Z,101960.76
2024-02-19T06:26:04.047Z,101961.25
2024-02-19T06:28:31.609Z,101964.49
2024-02-19T06:30:59.247Z,101962.54
2024-02-19T06:33:27.179Z,101962.45
2024-02-19T06:35:54.793Z,101959.23
2024-02-19T06:38:22.612Z,101957.73
2024-02-19T06:40:50.280Z,101961.20
2024-02-19T06:43:20.077Z,101953.77
2024-02-19T06:45:47.842Z,101954.64
2024-02-19T06:48:15.697Z,101956.05
2024-02-19T06:51:32.332Z,101956.25
2024-02-19T06:54:00.390Z,101954.85
2024-02-19T06:56:28.340Z,101959.77
2024-02-19T06:58:56.042Z,101958.73
2024-02-19T07:01:24.160Z,101960.30
2024-02-19T07:03:52.075Z,101956.32
2024-02-19T07:06:19.985Z,101961.14
2024-02-19T07:08:48.643Z,101959.19
2024-02-19T07:11:16.327Z,101960.55
2024-02-19T07:13:44.698Z,101955.33
2024-02-19T07:16:12.363Z,101955.95
2024-02-19T07:18:40.138Z,101949.49
2024-02-19T07:21:07.862Z,101952.89
2024-02-19T07:23:35.657Z,101949.37
2024-02-19T07:26:03.339Z,101949.48
2024-02-19T07:28:31.172Z,101945.80
2024-02-19T07:30:58.881Z,101947.39
2024-02-19T07:33:28.984Z,101947.95
2024-02-19T07:35:57.014Z,101947.91
2024-02-19T07:38:24.794Z,101949.40
2024-02-19T07:40:52.834Z,101945.20
2024-02-19T07:43:20.598Z,101948.25
2024-02-19T07:45:48.546Z,101945.61
2024-02-19T07:48:16.263Z,101941.24
2024-02-19T07:50:43.984Z,101936.86
2024-02-19T07:53:12.513Z,101939.18
2024-02-19T07:55:41.223Z,101939.45
2024-02-19T07:58:09.726Z,101941.42
2024-02-19T08:00:37.325Z,101942.33
2024-02-19T08:03:05.094Z,101938.39
2024-02-19T08:05:32.785Z,101939.33
2024-02-19T08:08:00.610Z,101940.46
2024-02-19T08:10:28.420Z,101939.55
2024-02-19T08:12:56.274Z,101935.66
2024-02-19T08:15:25.237Z,101931.02
2024-02-19T08:17:52.890Z,101932.58
2024-02-19T08:20:20.665Z,101927.45
2024-02-19T08:22:48.238Z,101932.33
2024-02-19T08:25:16.529Z,101931.48
2024-02-19T08:27:44.258Z,101927.56
2024-02-19T08:30:12.256Z,101928.25
2024-02-19T08:32:39.805Z,101927.04
2024-02-19T08:35:08.141Z,101924.58
2024-02-19T08:37:36.008Z,101925.44
2024-02-19T08:40:04.876Z,101927.70
2024-02-19T08:42:32.759Z,101924.38
2024-02-19T08:45:00.405Z,101922.76
2024-02-19T08:47:28.092Z,101924.19
2024-02-19T08:49:55.923Z,101925.59
2024-02-19T08:52:23.850Z,101922.90
2024-02-19T08:54:51.657Z,101921.23
2024-02-19T08:57:19.199Z,101921.94
2024-02-19T08:59:47.485Z,101917.92
2024-02-19T09:02:15.281Z,101919.29
2024-02-19T09:04:44.093Z,101912.87
2024-02-19T09:07:13.986Z,101918.16
2024-02-19T09:09:45.711Z,101918.53
2024-02-19T09:12:13.556Z,101917.59
2024-02-19T09:14:41.215Z,101916.86
2024-02-19T09:17:08.780Z,101923.17
2024-02-19T09:19:36.705Z,101914.56
2024-02-19T09:22:04.744Z,101912.03
2024-02-19T09:24:33.107Z,101909.79
2024-02-19T09:27:00.809Z,101910.31
2024-02-19T09:29:29.822Z,101908.20
2024-02-19T09:31:58.456Z,101897.56
2024-02-19T09:34:26.149Z,101901.80
2024-02-19T09:36:53.942Z,101896.20
2024-02-19T09:39:21.630Z,101893.84
2024-02-19T09:41:49.291Z,101894.65
2024-02-19T09:44:16.961Z,101887.48
2024-02-19T09:46:46.613Z,101886.79
2024-02-19T09:49:14.326Z,101885.25
2024-02-19T09:51:46.298Z,101883.60
2024-02-19T09:54:14.464Z,101883.28
2024-02-19T09:56:42.178Z,101878.08
2024-02-19T09:59:09.788Z,101878.11
2024-02-19T10:01:37.527Z,101873.77
2024-02-19T10:04:08.573Z,101874.47
2024-02-19T10:06:37.783Z,101867.73
2024-02-19T10:09:08.655Z,101866.39
2024-02-19T10:11:36.986Z,101868.25
2024-02-19T10:14:05.606Z,101865.67
2024-02-19T10:16:33.543Z,101865.52
2024-02-19T10:19:08.456Z,101863.57
2024-02-19T10:21:36.477Z,101860.65
2024-02-19T10:24:04.622Z,101860.17
2024-02-19T10:26:32.577Z,101858.34
2024-02-19T10:29:00.137Z,101854.02
2024-02-19T10:31:27.831Z,101854.16
2024-02-19T10:33:55.958Z,101853.20
2024-02-19T10:36:24.554Z,101847.73
2024-02-19T10:38:52.480Z,101843.42
2024-02-19T10:41:22.417Z,101843.27
2024-02-19T10:43:51.008Z,101842.45
2024-02-19T10:46:22.017Z,101837.20
2024-02-19T10:48:51.264Z,101836.08
2024-02-19T10:51:23.683Z,101840.70
2024-02-19T10:54:02.298Z,101838.21
2024-02-19T10:56:41.227Z,101832.02
2024-02-19T10:59:09.459Z,101827.55
2024-02-19T11:01:48.840Z,101830.74
2024-02-19T11:04:17.247Z,101826.27
2024-02-19T11:06:56.437Z,101829.31
2024-02-19T11:09:30.490Z,101823.25
2024-02-19T11:12:00.351Z,101820.71
2024-02-19T11:14:30.283Z,101820.44
2024-02-19T11:17:00.828Z,101819.23
2024-02-19T11:19:29.188Z,101813.09
2024-02-19T11:22:09.779Z,101808.64
2024-02-19T11:24:37.682Z,101811.42
2024-02-19T11:27:06.315Z,101813.30
2024-02-19T11:29:43.292Z,101808.66
2024-02-19T11:32:20.778Z,101806.58
2024-02-19T11:34:51.742Z,101803.81
2024-02-19T11:37:20.364Z,101804.58
2024-02-19T11:39:48.400Z,101804.77
2024-02-19T11:42:17.028Z,101794.61
2024-02-19T11:44:46.771Z,101796.37
2024-02-19T11:47:15.839Z,101794.83
2024-02-19T11:49:44.300Z,101792.30
2024-02-19T11:52:13.497Z,101788.23
2024-02-19T11:54:42.333Z,101785.88
2024-02-19T11:57:10.859Z,101785.15
2024-02-19T11:59:38.802Z,101783.77
2024-02-19T12:02:08.005Z,101787.14
2024-02-19T12:04:39.107Z,101783.13
2024-02-19T12:07:10.638Z,101778.86
2024-02-19T12:09:38.828Z,101775.73
2024-02-19T12:12:06.934Z,101774.72
2024-02-19T12:14:34.810Z,101775.17
2024-02-19T12:17:04.893Z,101772.08
2024-02-19T12:19:33.044Z,101768.29
2024-02-19T12:22:01.088Z,101769.27
2024-02-19T12:24:28.738Z,101762.59
2024-02-19T12:26:56.498Z,101761.20
2024-02-19T12:29:24.154Z,101759.00
2024-02-19T12:31:51.939Z,101753.48
2024-02-19T12:34:19.667Z,101751.10
2024-02-19T12:36:47.719Z,101751.86
2024-02-19T12:39:15.525Z,101749.77
2024-02-19T12:41:45.005Z,101747.45
2024-02-19T12:44:12.994Z,101747.34
2024-02-19T12:46:42.242Z,101742.68
2024-02-19T12:49:10.281Z,101739.42
2024-02-19T12:51:38.955Z,101738.98
2024-02-19T12:54:06.851Z,101737.40
2024-02-19T12:56:34.482Z,101738.43
2024-02-19T12:59:02.142Z,101734.06
2024-02-19T13:01:32.938Z,101730.09
2024-02-19T13:04:03.055Z,101728.46
2024-02-19T13:06:31.670Z,101725.42
2024-02-19T13:09:00.252Z,101721.80
2024-02-19T13:11:29.405Z,101717.44
2024-02-19T13:13:58.675Z,101708.27
2024-02-19T13:16:26.576Z,101697.77
2024-02-19T13:18:54.564Z,101694.35
2024-02-19T13:21:22.388Z,101699.48
2024-02-19T13:23:51.141Z,101694.50
2024-02-19T13:26:19.133Z,101687.05
2024-02-19T13:28:46.802Z,101685.73
2024-02-19T13:31:14.628Z,101686.42
2024-02-19T13:33:43.281Z,101682.02
2024-02-19T13:36:11.022Z,101684.70
2024-02-19T13:38:39.793Z,101685.52
2024-02-19T13:41:07.949Z,101685.02
2024-02-19T13:43:35.835Z,101683.70
2024-02-19T13:46:05.355Z,101676.10
2024-02-19T13:48:34.495Z,101676.98
2024-02-19T13:51:02.770Z,101680.61
2024-02-19T13:53:31.329Z,101680.69
2024-02-19T13:55:59.794Z,101681.63
2024-02-19T13:58:29.061Z,101676.80
2024-02-19T14:00:59.377Z,101680.75
2024-02-19T14:03:27.599Z,101683.44
2024-02-19T14:05:55.403Z,101679.59
2024-02-19T14:08:23.154Z,101676.72
2024-02-19T14:10:53.309Z,101677.79
2024-02-19T14:13:21.386Z,101674.38
2024-02-19T14:15:49.170Z,101674.85
2024-02-19T14:18:17.347Z,101679.52
2024-02-19T14:20:45.145Z,101678.25
2024-02-19T14:23:13.944Z,101680.81
2024-02-19T14:25:43.708Z,101681.95
2024-02-19T14:28:11.818Z,101678.14
2024-02-19T14:30:39.584Z,101679.23
2024-02-19T14:33:07.522Z,101678.27
2024-02-19T14:35:35.417Z,101677.90
2024-02-19T14:38:04.340Z,101677.57
2024-02-19T14:40:38.229Z,101676.43
2024-02-19T14:43:06.181Z,101680.94
2024-02-19T14:45:34.083Z,101682.35
2024-02-19T14:48:02.620Z,101686.51
2024-02-19T14:50:30.651Z,101686.50
2024-02-19T14:52:58.616Z,101685.47
2024-02-19T14:55:26.393Z,101687.15
2024-02-19T14:57:54.882Z,101684.81
2024-02-19T15:00:22.974Z,101685.15
2024-02-19T15:02:52.147Z,101689.38
2024-02-19T15:05:20.615Z,101692.57
2024-02-19T15:07:55.746Z,101693.77
2024-02-19T15:10:29.233Z,101691.50
2024-02-19T15:12:58.050Z,101692.28
2024-02-19T15:15:26.461Z,101698.80
2024-02-19T15:17:54.361Z,101699.52
2024-02-19T15:20:23.195Z,101698.90
2024-02-19T15:22:51.900Z,101696.17
2024-02-19T15:25:20.780Z,101700.52
2024-02-19T15:27:49.517Z,101705.17
2024-02-19T15:30:17.233Z,101708.25
2024-02-19T15:32:44.940Z,101705.58
2024-02-19T15:35:13.783Z,101708.65
2024-02-19T15:37:41.860Z,101705.51
2024-02-19T15:40:10.978Z,101705.93
2024-02-19T15:42:39.388Z,101707.91
2024-02-19T15:45:08.050Z,101704.30
2024-02-19T15:47:35.804Z,101700.61
2024-02-19T15:50:05.145Z,101705.39
2024-02-19T15:52:33.092Z,101709.52
2024-02-19T15:55:00.789Z,101707.91
2024-02-19T15:57:29.432Z,101708.61
2024-02-19T15:59:57.069Z,101704.94
2024-02-19T16:02:24.734Z,101703.73
2024-02-19T16:04:52.477Z,101704.63
2024-02-19T16:07:23.445Z,101703.40
2024-02-19T16:09:52.786Z,101702.11
2024-02-19T16:12:20.708Z,101699.36
2024-02-19T16:14:48.693Z,101696.16
2024-02-19T16:17:17.839Z,101696.13
2024-02-19T16:19:46.754Z,101695.45
2024-02-19T16:22:16.173Z,101690.38
2024-02-19T16:24:43.869Z,101690.23
2024-02-19T16:27:11.652Z,101694.03
2024-02-19T16:29:39.208Z,101694.29
2024-02-19T16:32:07.422Z,101702.85
2024-02-19T16:34:35.357Z,101705.93
2024-02-19T16:37:03.090Z,101706.81
2024-02-19T16:39:30.702Z,101709.45
2024-02-19T16:41:58.380Z,101712.96
2024-02-19T16:44:26.690Z,101710.77
2024-02-19T16:46:54.436Z,101703.33
2024-02-19T16:49:22.463Z,101700.42
2024-02-19T16:51:50.222Z,101700.01
2024-02-19T16:54:21.424Z,101696.84
2024-02-19T16:56:49.489Z,101693.23
2024-02-19T16:59:17.342Z,101690.50
2024-02-19T17:01:46.975Z,101692.21
2024-02-19T17:04:15.066Z,101685.19
2024-02-19T17:06:45.164Z,101681.66
2024-02-19T17:09:13.112Z,101684.95
2024-02-19T17:11:40.944Z,101684.10
2024-02-19T17:14:09.377Z,101683.92
2024-02-19T17:16:37.230Z,101683.23
2024-02-19T17:19:05.868Z,101682.75
2024-02-19T17:21:33.479Z,101683.41
2024-02-19T17:24:01.195Z,101676.78
2024-02-19T17:26:29.288Z,101677.08
2024-02-19T17:28:56.909Z,101672.89
2024-02-19T17:31:28.448Z,101666.86
2024-02-19T17:33:56.350Z,101664.46
2024-02-19T17:36:24.134Z,101665.35
2024-02-19T17:38:51.761Z,101662.55
2024-02-19T17:41:19.485Z,101659.36
2024-02-19T17:43:48.591Z,101657.23
2024-02-19T17:46:17.129Z,101657.55
2024-02-19T17:48:46.319Z,101656.61
2024-02-19T17:51:20.645Z,101660.58
2024-02-19T17:53:52.853Z,101661.92
2024-02-19T17:56:20.362Z,101659.48
2024-02-19T17:58:48.096Z,101653.56
2024-02-19T18:01:15.996Z,101657.14
2024-02-19T18:03:44.926Z,101657.42
2024-02-19T18:06:13.413Z,101661.88
2024-02-19T18:08:40.984Z,101657.82
2024-02-19T18:11:12.508Z,101656.87
2024-02-19T18:13:40.264Z,101655.08
2024-02-19T18:16:08.110Z,101651.70
2024-02-19T18:18:36.003Z,101643.59
2024-02-19T18:21:04.716Z,101650.04
2024-02-19T18:23:33.191Z,101649.30
2024-02-19T18:26:02.332Z,101651.77
2024-02-19T18:28:31.860Z,101649.92
2024-02-19T18:31:02.015Z,101651.04
2024-02-19T18:33:29.897Z,101653.20
2024-02-19T18:35:57.490Z,101650.81
2024-02-19T18:38:25.212Z,101648.09
2024-02-19T18:40:54.451Z,101646.55
2024-02-19T18:43:22.797Z,101643.88
2024-02-19T18:45:50.565Z,101642.77
2024-02-19T18:48:18.417Z,101634.73
2024-02-19T18:50:46.118Z,101631.74
2024-02-19T18:53:13.842Z,101634.00
2024-02-19T18:55:41.706Z,101636.20
2024-02-19T18:58:09.412Z,101636.36
2024-02-19T19:00:37.292Z,101633.11
2024-02-19T19:03:05.272Z,101632.20
2024-02-19T19:05:35.991Z,101633.02
2024-02-19T19:20:11.536Z,101633.91
2024-02-19T19:22:39.471Z,101632.08
2024-02-19T19:25:08.112Z,101636.56
2024-02-19T19:27:35.898Z,101634.75
2024-02-19T19:30:04.024Z,101637.78
2024-02-19T19:32:36.383Z,101644.48
2024-02-19T19:35:04.984Z,101651.66
2024-02-19T19:37:33.020Z,101655.54
2024-02-19T19:40:02.444Z,101660.38
2024-02-19T19:42:30.993Z,101657.55
2024-02-19T19:44:58.642Z,101657.48
2024-02-19T19:47:26.290Z,101654.83
2024-02-19T19:49:54.052Z,101644.63
2024-02-19T19:52:21.864Z,101634.54
2024-02-19T19:54:49.649Z,101632.41
2024-02-19T19:57:17.288Z,101635.11
2024-02-19T19:59:49.891Z,101632.92
2024-02-19T20:02:18.578Z,101638.35
2024-02-19T20:04:50.282Z,101640.18
2024-02-19T20:07:18.041Z,101640.48
2024-02-19T20:09:47.379Z,101636.32
2024-02-19T20:12:15.376Z,101636.42
2024-02-19T20:14:43.092Z,101638.73
2024-02-19T20:17:10.744Z,101641.76
2024-02-19T20:19:38.501Z,101640.23
2024-02-19T20:22:06.338Z,101639.05
2024-02-19T20:24:34.003Z,101636.70
2024-02-19T20:27:02.476Z,101635.92
2024-02-19T20:29:30.184Z,101634.21
2024-02-19T20:32:02.972Z,101632.33
2024-02-19T20:34:31.278Z,101630.45
2024-02-19T20:36:59.068Z,101634.44
2024-02-19T20:39:26.768Z,101636.56
2024-02-19T20:41:54.542Z,101638.09
2024-02-19T20:44:22.308Z,101637.54
2024-02-19T20:46:50.066Z,101634.08
2024-02-19T20:49:17.869Z,101635.29
2024-02-19T20:51:46.389Z,101638.08
2024-02-19T20:54:14.394Z,101641.58
2024-02-19T20:56:44.879Z,101642.42
2024-02-19T20:59:12.625Z,101637.16
2024-02-19T21:01:42.589Z,101631.84
2024-02-19T21:04:10.717Z,101630.11
2024-02-19T21:06:38.486Z,101632.30
2024-02-19T21:09:07.223Z,101633.67
2024-02-19T21:11:34.911Z,101632.66
2024-02-19T21:14:04.225Z,101633.54
2024-02-19T21:16:32.139Z,101633.90
2024-02-19T21:19:00.847Z,101630.63
2024-02-19T21:21:34.554Z,101632.23
2024-02-19T21:24:04.018Z,101628.91
2024-02-19T21:26:32.425Z,101630.00
2024-02-19T21:29:00.292Z,101625.49
2024-02-19T21:31:28.411Z,101622.73
2024-02-19T21:33:56.418Z,101624.84
2024-02-19T21:36:24.129Z,101625.20
2024-02-19T21:38:51.870Z,101625.45
2024-02-19T21:41:20.251Z,101625.83
2024-02-19T21:43:47.805Z,101624.14
2024-02-19T21:46:15.469Z,101624.04
2024-02-19T21:48:43.976Z,101627.44
2024-02-19T21:51:12.117Z,101628.91
2024-02-19T21:53:39.783Z,101631.39
2024-02-19T21:56:07.988Z,101631.06
2024-02-19T21:58:35.593Z,101625.69
2024-02-19T22:01:03.375Z,101625.05
2024-02-19T22:03:32.290Z,101622.32
2024-02-19T22:05:59.970Z,101622.24
2024-02-19T22:08:27.954Z,101622.84
2024-02-19T22:10:55.543Z,101621.80
2024-02-19T22:13:23.372Z,101620.91
2024-02-19T22:15:55.542Z,101617.30
2024-02-19T22:18:25.708Z,101618.86
2024-02-19T22:20:53.796Z,101615.74
2024-02-19T22:23:21.458Z,101611.77
2024-02-19T22:25:49.619Z,101613.00
2024-02-19T22:28:17.547Z,101608.11
2024-02-19T22:30:45.375Z,101608.81
2024-02-19T22:33:13.191Z,101607.27
2024-02-19T22:35:41.049Z,101604.35
2024-02-19T22:38:08.869Z,101597.75
2024-02-19T22:40:36.602Z,101592.77
2024-02-19T22:43:10.657Z,101587.13
2024-02-19T22:45:38.790Z,101585.98
2024-02-19T22:48:07.085Z,101589.67
2024-02-19T22:50:35.801Z,101590.09
2024-02-19T22:53:04.371Z,101585.62
2024-02-19T22:55:32.402Z,101585.26
2024-02-19T22:58:00.434Z,101587.77
2024-02-19T23:00:29.100Z,101583.40
2024-02-19T23:02:56.906Z,101580.93
2024-02-19T23:05:25.551Z,101580.02
2024-02-19T23:07:55.226Z,101582.26
2024-02-19T23:10:23.471Z,101581.23
2024-02-19T23:12:51.841Z,101585.05
2024-02-19T23:15:20.297Z,101584.42
2024-02-19T23:17:47.855Z,101578.59
2024-02-19T23:20:16.046Z,101576.95
2024-02-19T23:22:47.366Z,101568.94
2024-02-19T23:25:15.354Z,101561.21
2024-02-19T23:27:43.010Z,101556.98
2024-02-19T23:30:11.744Z,101551.00
2024-02-19T23:32:39.580Z,101553.80
2024-02-19T23:35:08.467Z,101552.90
2024-02-19T23:37:36.965Z,101549.10
2024-02-19T23:40:16.226Z,101549.33
2024-02-19T23:42:47.369Z,101551.48
2024-02-19T23:45:15.126Z,101548.23
2024-02-19T23:47:43.169Z,101543.76
2024-02-19T23:50:11.274Z,101536.38
2024-02-19T23:52:41.141Z,101532.23
2024-02-19T23:55:10.623Z,101529.26
2024-02-19T23:57:41.253Z,101535.09
